LHA277 LIBR-EDDM
Flight info
| Callsign | LHA277 |
|---|---|
| Flight time | 1h 34m |
| Altitude | 36000 |
| Route | LIBR/31 ENOX6J ENOXA DCT AIOSA DCT SABAD DCT NIPEL DCT TITIG Q112 NAPSA NAPS4A EDDM/08L |
| Aircraft | B738/M-SDE1E2FGIJ1RWYZ/S |
Departure
| Time | 2026-05-01 09:56 |
|---|---|
| Airport | Brindisi Airport (LIBR) |
Arrival
| Time | 2026-05-01 11:30 |
|---|---|
| Airport | Munich Airport (EDDM) |
| Time | Latitude | Longitude | Altitude | Speed | Heading |
|---|---|---|---|---|---|
| 2026-05-01 09:33 | 40.65742 | 17.93992 | 56 ft | 0 kts | 323° |
| 2026-05-01 09:42 | 40.65739 | 17.93994 | 56 ft | 1 kts | 323° |
| 2026-05-01 09:43 | 40.65708 | 17.94023 | 56 ft | 3 kts | 328° |
| 2026-05-01 09:43 | 40.65691 | 17.94037 | 56 ft | 3 kts | 331° |
| 2026-05-01 09:43 | 40.65673 | 17.94049 | 56 ft | 3 kts | 339° |
| 2026-05-01 09:44 | 40.65637 | 17.94053 | 56 ft | 3 kts | 43° |
| 2026-05-01 09:44 | 40.65634 | 17.94049 | 56 ft | 0 kts | 51° |
| 2026-05-01 09:45 | 40.65634 | 17.94050 | 56 ft | 0 kts | 51° |
| 2026-05-01 09:46 | 40.65635 | 17.94050 | 56 ft | 0 kts | 51° |
| 2026-05-01 09:48 | 40.65662 | 17.94094 | 56 ft | 11 kts | 51° |
| 2026-05-01 09:48 | 40.65707 | 17.94168 | 56 ft | 10 kts | 51° |
| 2026-05-01 09:48 | 40.65751 | 17.94238 | 56 ft | 10 kts | 51° |
| 2026-05-01 09:48 | 40.65792 | 17.94306 | 56 ft | 9 kts | 51° |
| 2026-05-01 09:49 | 40.65833 | 17.94371 | 56 ft | 9 kts | 51° |
| 2026-05-01 09:49 | 40.65871 | 17.94434 | 56 ft | 9 kts | 51° |
| 2026-05-01 09:49 | 40.65934 | 17.94536 | 56 ft | 18 kts | 51° |
| 2026-05-01 09:49 | 40.66022 | 17.94676 | 56 ft | 20 kts | 45° |
| 2026-05-01 09:50 | 40.66139 | 17.94665 | 56 ft | 19 kts | 321° |
| 2026-05-01 09:50 | 40.66236 | 17.94550 | 56 ft | 18 kts | 316° |
| 2026-05-01 09:50 | 40.66325 | 17.94435 | 56 ft | 17 kts | 316° |
| 2026-05-01 09:50 | 40.66409 | 17.94327 | 56 ft | 16 kts | 316° |
| 2026-05-01 09:51 | 40.66489 | 17.94225 | 56 ft | 16 kts | 316° |
| 2026-05-01 09:51 | 40.66566 | 17.94131 | 56 ft | 15 kts | 318° |
| 2026-05-01 09:51 | 40.66639 | 17.94044 | 56 ft | 14 kts | 318° |
| 2026-05-01 09:51 | 40.66709 | 17.93961 | 56 ft | 13 kts | 318° |
| 2026-05-01 09:52 | 40.66779 | 17.93878 | 56 ft | 14 kts | 318° |
| 2026-05-01 09:52 | 40.66852 | 17.93792 | 56 ft | 14 kts | 318° |
| 2026-05-01 09:52 | 40.66924 | 17.93705 | 56 ft | 14 kts | 318° |
| 2026-05-01 09:52 | 40.66999 | 17.93617 | 56 ft | 15 kts | 318° |
| 2026-05-01 09:53 | 40.67077 | 17.93525 | 56 ft | 15 kts | 317° |
| 2026-05-01 09:53 | 40.67152 | 17.93433 | 56 ft | 15 kts | 317° |
| 2026-05-01 09:53 | 40.67228 | 17.93336 | 56 ft | 17 kts | 311° |
| 2026-05-01 09:53 | 40.67327 | 17.93202 | 56 ft | 20 kts | 313° |
| 2026-05-01 09:54 | 40.67353 | 17.93039 | 56 ft | 19 kts | 245° |
| 2026-05-01 09:54 | 40.67319 | 17.92984 | 56 ft | 0 kts | 220° |
| 2026-05-01 09:55 | 40.67314 | 17.92979 | 56 ft | 8 kts | 216° |
| 2026-05-01 09:55 | 40.67163 | 17.93080 | 56 ft | 53 kts | 136° |
| 2026-05-01 09:55 | 40.66666 | 17.93685 | 56 ft | 137 kts | 137° |
| 2026-05-01 09:55 | 40.65810 | 17.94704 | 369 ft | 178 kts | 138° |
| 2026-05-01 09:56 | 40.64890 | 17.95773 | 1531 ft | 165 kts | 134° |
| 2026-05-01 09:56 | 40.64053 | 17.96772 | 2489 ft | 165 kts | 133° |
| 2026-05-01 09:56 | 40.63140 | 17.97850 | 3020 ft | 188 kts | 134° |
| 2026-05-01 09:56 | 40.62090 | 17.99091 | 3544 ft | 213 kts | 134° |
| 2026-05-01 09:57 | 40.60916 | 18.00476 | 3923 ft | 242 kts | 134° |
| 2026-05-01 09:57 | 40.59867 | 18.02269 | 4505 ft | 255 kts | 110° |
| 2026-05-01 09:57 | 40.59507 | 18.04596 | 5239 ft | 260 kts | 83° |
| 2026-05-01 09:57 | 40.59969 | 18.06855 | 6170 ft | 256 kts | 58° |
| 2026-05-01 09:58 | 40.61138 | 18.08604 | 7094 ft | 257 kts | 33° |
| 2026-05-01 09:58 | 40.62794 | 18.09494 | 7945 ft | 263 kts | 8° |
| 2026-05-01 09:58 | 40.64445 | 18.09393 | 8714 ft | 270 kts | 346° |
| 2026-05-01 09:58 | 40.66173 | 18.08362 | 9539 ft | 279 kts | 328° |
| 2026-05-01 09:59 | 40.67810 | 18.06962 | 9975 ft | 281 kts | 330° |
| 2026-05-01 09:59 | 40.69513 | 18.05696 | 10190 ft | 281 kts | 331° |
| 2026-05-01 09:59 | 40.70669 | 18.04844 | 10206 ft | 289 kts | 331° |
| 2026-05-01 09:59 | 40.73147 | 18.02999 | 10217 ft | 316 kts | 331° |
| 2026-05-01 10:00 | 40.75074 | 18.01543 | 10212 ft | 323 kts | 330° |
| 2026-05-01 10:00 | 40.76402 | 18.00541 | 10211 ft | 326 kts | 330° |
| 2026-05-01 10:00 | 40.78399 | 17.99019 | 10707 ft | 332 kts | 330° |
| 2026-05-01 10:00 | 40.80383 | 17.97503 | 11859 ft | 329 kts | 330° |
| 2026-05-01 10:01 | 40.82370 | 17.95985 | 12765 ft | 332 kts | 329° |
| 2026-05-01 10:01 | 40.84379 | 17.94441 | 13610 ft | 336 kts | 329° |
| 2026-05-01 10:01 | 40.86439 | 17.92860 | 14468 ft | 339 kts | 329° |
| 2026-05-01 10:01 | 40.88491 | 17.91281 | 15267 ft | 344 kts | 329° |
| 2026-05-01 10:02 | 40.90572 | 17.89678 | 16070 ft | 346 kts | 329° |
| 2026-05-01 10:02 | 40.92698 | 17.88050 | 16873 ft | 350 kts | 329° |
| 2026-05-01 10:02 | 40.94823 | 17.86454 | 17613 ft | 353 kts | 329° |
| 2026-05-01 10:02 | 40.96963 | 17.84823 | 18352 ft | 357 kts | 329° |
| 2026-05-01 10:03 | 40.99116 | 17.83169 | 19072 ft | 360 kts | 328° |
| 2026-05-01 10:03 | 41.01291 | 17.81494 | 19746 ft | 364 kts | 328° |
| 2026-05-01 10:03 | 41.03489 | 17.79792 | 20423 ft | 367 kts | 328° |
| 2026-05-01 10:03 | 41.05706 | 17.78074 | 21069 ft | 371 kts | 328° |
| 2026-05-01 10:04 | 41.07972 | 17.76317 | 21718 ft | 374 kts | 328° |
| 2026-05-01 10:04 | 41.10229 | 17.74567 | 22314 ft | 378 kts | 328° |
| 2026-05-01 10:04 | 41.12506 | 17.72799 | 22901 ft | 381 kts | 328° |
| 2026-05-01 10:04 | 41.14805 | 17.71014 | 23470 ft | 385 kts | 328° |
| 2026-05-01 10:05 | 41.17127 | 17.69212 | 24033 ft | 388 kts | 328° |
| 2026-05-01 10:05 | 41.19467 | 17.67403 | 24582 ft | 390 kts | 329° |
| 2026-05-01 10:05 | 41.21653 | 17.65907 | 25072 ft | 394 kts | 333° |
| 2026-05-01 10:05 | 41.24229 | 17.64371 | 25634 ft | 396 kts | 334° |
| 2026-05-01 10:06 | 41.26780 | 17.62953 | 26123 ft | 399 kts | 335° |
| 2026-05-01 10:06 | 41.29347 | 17.61524 | 26623 ft | 401 kts | 334° |
| 2026-05-01 10:06 | 41.31925 | 17.60070 | 27082 ft | 404 kts | 334° |
| 2026-05-01 10:06 | 41.34520 | 17.58593 | 27544 ft | 406 kts | 334° |
| 2026-05-01 10:07 | 41.37118 | 17.57106 | 27989 ft | 408 kts | 334° |
| 2026-05-01 10:07 | 41.39734 | 17.55603 | 28412 ft | 411 kts | 334° |
| 2026-05-01 10:07 | 41.42361 | 17.54090 | 28832 ft | 412 kts | 334° |
| 2026-05-01 10:07 | 41.45000 | 17.52566 | 29218 ft | 415 kts | 334° |
| 2026-05-01 10:08 | 41.50330 | 17.49485 | 29967 ft | 419 kts | 333° |
| 2026-05-01 10:08 | 41.53013 | 17.47943 | 30318 ft | 422 kts | 334° |
| 2026-05-01 10:08 | 41.55719 | 17.46390 | 30608 ft | 425 kts | 334° |
| 2026-05-01 10:09 | 41.58445 | 17.44819 | 30906 ft | 428 kts | 334° |
| 2026-05-01 10:09 | 41.61181 | 17.43237 | 31278 ft | 428 kts | 334° |
| 2026-05-01 10:09 | 41.63914 | 17.41659 | 31710 ft | 428 kts | 334° |
| 2026-05-01 10:09 | 41.66649 | 17.40089 | 32103 ft | 428 kts | 334° |
| 2026-05-01 10:10 | 41.69379 | 17.38504 | 32501 ft | 427 kts | 334° |
| 2026-05-01 10:10 | 41.72104 | 17.36917 | 32875 ft | 427 kts | 334° |
| 2026-05-01 10:10 | 41.77548 | 17.33738 | 33658 ft | 426 kts | 333° |
| 2026-05-01 10:11 | 41.80267 | 17.32147 | 33989 ft | 427 kts | 333° |
| 2026-05-01 10:11 | 41.82984 | 17.30556 | 34357 ft | 426 kts | 333° |
| 2026-05-01 10:11 | 41.85700 | 17.28964 | 34722 ft | 426 kts | 333° |
| 2026-05-01 10:11 | 41.88419 | 17.27370 | 35035 ft | 427 kts | 333° |
| 2026-05-01 10:12 | 41.91139 | 17.25777 | 35350 ft | 427 kts | 333° |
| 2026-05-01 10:12 | 41.93858 | 17.24180 | 35693 ft | 426 kts | 333° |
| 2026-05-01 10:12 | 41.98505 | 17.21270 | 36190 ft | 427 kts | 332° |
| 2026-05-01 10:13 | 42.01204 | 17.19537 | 36225 ft | 432 kts | 332° |
| 2026-05-01 10:13 | 42.06695 | 17.16022 | 36237 ft | 442 kts | 333° |
| 2026-05-01 10:14 | 42.15048 | 17.10688 | 36238 ft | 441 kts | 333° |
| 2026-05-01 10:14 | 42.20587 | 17.07148 | 36239 ft | 441 kts | 333° |
| 2026-05-01 10:15 | 42.26144 | 17.03614 | 36240 ft | 441 kts | 334° |
| 2026-05-01 10:15 | 42.31698 | 17.00092 | 36242 ft | 441 kts | 334° |
| 2026-05-01 10:16 | 42.37244 | 16.96555 | 36258 ft | 441 kts | 334° |
| 2026-05-01 10:17 | 42.45599 | 16.91203 | 36262 ft | 447 kts | 334° |
| 2026-05-01 10:17 | 42.54039 | 16.85776 | 36269 ft | 447 kts | 334° |
| 2026-05-01 10:18 | 42.62462 | 16.80342 | 36263 ft | 447 kts | 334° |
| 2026-05-01 10:19 | 42.68080 | 16.76708 | 36265 ft | 448 kts | 334° |
| 2026-05-01 10:19 | 42.73395 | 16.73263 | 36268 ft | 448 kts | 334° |
| 2026-05-01 10:20 | 42.81822 | 16.67789 | 36272 ft | 447 kts | 334° |
| 2026-05-01 10:20 | 42.87435 | 16.64133 | 36281 ft | 447 kts | 334° |
| 2026-05-01 10:21 | 42.95855 | 16.58634 | 36285 ft | 448 kts | 334° |
| 2026-05-01 10:22 | 43.04285 | 16.53113 | 36286 ft | 448 kts | 334° |
| 2026-05-01 10:23 | 43.12723 | 16.47569 | 36287 ft | 448 kts | 335° |
| 2026-05-01 10:23 | 43.21192 | 16.41988 | 36288 ft | 448 kts | 335° |
| 2026-05-01 10:24 | 43.32436 | 16.34551 | 36290 ft | 449 kts | 335° |
| 2026-05-01 10:26 | 43.48961 | 16.23565 | 36290 ft | 450 kts | 335° |
| 2026-05-01 10:27 | 43.60076 | 16.16138 | 36291 ft | 450 kts | 336° |
| 2026-05-01 10:28 | 43.68521 | 16.10477 | 36295 ft | 450 kts | 336° |
| 2026-05-01 10:28 | 43.76983 | 16.04786 | 36305 ft | 451 kts | 336° |
| 2026-05-01 10:29 | 43.85433 | 15.99081 | 36315 ft | 451 kts | 336° |
| 2026-05-01 10:30 | 43.96708 | 15.91445 | 36330 ft | 451 kts | 336° |
| 2026-05-01 10:31 | 44.07977 | 15.83776 | 36339 ft | 450 kts | 336° |
| 2026-05-01 10:32 | 44.16408 | 15.78019 | 36345 ft | 450 kts | 336° |
| 2026-05-01 10:33 | 44.27651 | 15.70313 | 36347 ft | 449 kts | 336° |
| 2026-05-01 10:34 | 44.35909 | 15.64633 | 36349 ft | 449 kts | 336° |
| 2026-05-01 10:34 | 44.41505 | 15.60775 | 36351 ft | 449 kts | 336° |
| 2026-05-01 10:35 | 44.49908 | 15.54965 | 36354 ft | 448 kts | 336° |
| 2026-05-01 10:35 | 44.55492 | 15.51091 | 36354 ft | 448 kts | 337° |
| 2026-05-01 10:36 | 44.63856 | 15.45274 | 36355 ft | 447 kts | 337° |
| 2026-05-01 10:37 | 44.69421 | 15.41395 | 36357 ft | 446 kts | 337° |
| 2026-05-01 10:37 | 44.77754 | 15.35568 | 36367 ft | 445 kts | 338° |
| 2026-05-01 10:38 | 44.83293 | 15.31685 | 36375 ft | 445 kts | 338° |
| 2026-05-01 10:38 | 44.88835 | 15.27792 | 36378 ft | 445 kts | 338° |
| 2026-05-01 10:39 | 44.94370 | 15.23895 | 36380 ft | 444 kts | 338° |
| 2026-05-01 10:39 | 44.99907 | 15.19991 | 36381 ft | 444 kts | 338° |
| 2026-05-01 10:40 | 45.05473 | 15.16053 | 36382 ft | 444 kts | 338° |
| 2026-05-01 10:40 | 45.10835 | 15.12253 | 36383 ft | 443 kts | 338° |
| 2026-05-01 10:41 | 45.16368 | 15.08324 | 36384 ft | 444 kts | 338° |
| 2026-05-01 10:42 | 45.24652 | 15.02458 | 36386 ft | 444 kts | 338° |
| 2026-05-01 10:42 | 45.30163 | 14.98517 | 36387 ft | 443 kts | 338° |
| 2026-05-01 10:43 | 45.35657 | 14.94573 | 36387 ft | 443 kts | 338° |
| 2026-05-01 10:43 | 45.41154 | 14.90621 | 36390 ft | 442 kts | 339° |
| 2026-05-01 10:44 | 45.46649 | 14.86666 | 36390 ft | 442 kts | 339° |
| 2026-05-01 10:44 | 45.51164 | 14.83229 | 36392 ft | 444 kts | 336° |
| 2026-05-01 10:45 | 45.56555 | 14.78800 | 36394 ft | 444 kts | 336° |
| 2026-05-01 10:45 | 45.61923 | 14.74433 | 36397 ft | 444 kts | 336° |
| 2026-05-01 10:46 | 45.67294 | 14.70083 | 36399 ft | 444 kts | 336° |
| 2026-05-01 10:46 | 45.72670 | 14.65728 | 36401 ft | 444 kts | 336° |
| 2026-05-01 10:47 | 45.78047 | 14.61388 | 36405 ft | 443 kts | 337° |
| 2026-05-01 10:47 | 45.83233 | 14.57228 | 36406 ft | 443 kts | 337° |
| 2026-05-01 10:48 | 45.88602 | 14.52888 | 36402 ft | 443 kts | 337° |
| 2026-05-01 10:48 | 45.93961 | 14.48536 | 36401 ft | 442 kts | 337° |
| 2026-05-01 10:49 | 45.99313 | 14.44177 | 36404 ft | 442 kts | 337° |
| 2026-05-01 10:49 | 46.04663 | 14.39809 | 36406 ft | 442 kts | 337° |
| 2026-05-01 10:50 | 46.10005 | 14.35441 | 36406 ft | 442 kts | 337° |
| 2026-05-01 10:50 | 46.15342 | 14.31059 | 36407 ft | 442 kts | 337° |
| 2026-05-01 10:51 | 46.20690 | 14.26663 | 36406 ft | 442 kts | 337° |
| 2026-05-01 10:51 | 46.26041 | 14.22291 | 36410 ft | 442 kts | 337° |
| 2026-05-01 10:52 | 46.31378 | 14.17879 | 36412 ft | 442 kts | 336° |
| 2026-05-01 10:52 | 46.36715 | 14.13449 | 36416 ft | 442 kts | 336° |
| 2026-05-01 10:53 | 46.42044 | 14.09013 | 36420 ft | 442 kts | 336° |
| 2026-05-01 10:53 | 46.47381 | 14.04570 | 36424 ft | 442 kts | 336° |
| 2026-05-01 10:54 | 46.52679 | 13.99986 | 36426 ft | 444 kts | 334° |
| 2026-05-01 10:54 | 46.57529 | 13.95509 | 36428 ft | 443 kts | 334° |
| 2026-05-01 10:55 | 46.62740 | 13.90713 | 36428 ft | 444 kts | 334° |
| 2026-05-01 10:55 | 46.67996 | 13.85882 | 36432 ft | 443 kts | 334° |
| 2026-05-01 10:56 | 46.73198 | 13.81095 | 36432 ft | 443 kts | 334° |
| 2026-05-01 10:56 | 46.78418 | 13.76290 | 36431 ft | 442 kts | 334° |
| 2026-05-01 10:57 | 46.83608 | 13.71577 | 36431 ft | 441 kts | 334° |
| 2026-05-01 10:57 | 46.88870 | 13.66754 | 36430 ft | 442 kts | 334° |
| 2026-05-01 10:58 | 46.94074 | 13.61959 | 36429 ft | 442 kts | 334° |
| 2026-05-01 10:58 | 46.99260 | 13.57163 | 36427 ft | 439 kts | 334° |
| 2026-05-01 10:59 | 47.04391 | 13.52406 | 36426 ft | 435 kts | 334° |
| 2026-05-01 10:59 | 47.09552 | 13.47606 | 35881 ft | 437 kts | 334° |
| 2026-05-01 10:59 | 47.12115 | 13.45220 | 35111 ft | 436 kts | 334° |
| 2026-05-01 11:00 | 47.14669 | 13.42841 | 34506 ft | 433 kts | 334° |
| 2026-05-01 11:00 | 47.17201 | 13.40475 | 33957 ft | 429 kts | 334° |
| 2026-05-01 11:00 | 47.19704 | 13.38135 | 33421 ft | 424 kts | 334° |
| 2026-05-01 11:00 | 47.22182 | 13.35817 | 32893 ft | 420 kts | 334° |
| 2026-05-01 11:01 | 47.24639 | 13.33516 | 32373 ft | 416 kts | 335° |
| 2026-05-01 11:01 | 47.27068 | 13.31238 | 31862 ft | 412 kts | 334° |
| 2026-05-01 11:01 | 47.29217 | 13.29220 | 31412 ft | 409 kts | 334° |
| 2026-05-01 11:01 | 47.31609 | 13.26973 | 30912 ft | 406 kts | 334° |
| 2026-05-01 11:02 | 47.33975 | 13.24747 | 30420 ft | 403 kts | 334° |
| 2026-05-01 11:02 | 47.36325 | 13.22534 | 29941 ft | 400 kts | 334° |
| 2026-05-01 11:02 | 47.38664 | 13.20328 | 29462 ft | 397 kts | 334° |
| 2026-05-01 11:02 | 47.40977 | 13.18145 | 28985 ft | 394 kts | 334° |
| 2026-05-01 11:03 | 47.43280 | 13.15969 | 28510 ft | 391 kts | 334° |
| 2026-05-01 11:03 | 47.45576 | 13.13797 | 28035 ft | 389 kts | 334° |
| 2026-05-01 11:03 | 47.47382 | 13.12087 | 27661 ft | 386 kts | 334° |
| 2026-05-01 11:03 | 47.49785 | 13.09810 | 27164 ft | 384 kts | 334° |
| 2026-05-01 11:04 | 47.52012 | 13.07699 | 26696 ft | 382 kts | 334° |
| 2026-05-01 11:04 | 47.54257 | 13.05566 | 26226 ft | 379 kts | 334° |
| 2026-05-01 11:04 | 47.56465 | 13.03467 | 25646 ft | 380 kts | 334° |
| 2026-05-01 11:04 | 47.58710 | 13.01331 | 25017 ft | 382 kts | 334° |
| 2026-05-01 11:05 | 47.60979 | 12.99169 | 24486 ft | 381 kts | 334° |
| 2026-05-01 11:05 | 47.63195 | 12.97056 | 23991 ft | 379 kts | 334° |
| 2026-05-01 11:05 | 47.65409 | 12.94942 | 23518 ft | 376 kts | 334° |
| 2026-05-01 11:05 | 47.67600 | 12.92849 | 23055 ft | 373 kts | 333° |
| 2026-05-01 11:06 | 47.69771 | 12.90772 | 22586 ft | 371 kts | 333° |
| 2026-05-01 11:06 | 47.71933 | 12.88701 | 22123 ft | 368 kts | 333° |
| 2026-05-01 11:06 | 47.74077 | 12.86647 | 21664 ft | 366 kts | 333° |
| 2026-05-01 11:07 | 47.78322 | 12.82572 | 20764 ft | 360 kts | 333° |
| 2026-05-01 11:07 | 47.80432 | 12.80578 | 20304 ft | 358 kts | 333° |
| 2026-05-01 11:07 | 47.82514 | 12.78589 | 19812 ft | 351 kts | 333° |
| 2026-05-01 11:07 | 47.84542 | 12.76640 | 18894 ft | 345 kts | 333° |
| 2026-05-01 11:08 | 47.86556 | 12.74696 | 17838 ft | 345 kts | 333° |
| 2026-05-01 11:08 | 47.88557 | 12.72760 | 16886 ft | 341 kts | 332° |
| 2026-05-01 11:08 | 47.92392 | 12.69041 | 15123 ft | 332 kts | 332° |
| 2026-05-01 11:09 | 47.94302 | 12.67186 | 14689 ft | 314 kts | 332° |
| 2026-05-01 11:09 | 47.96082 | 12.65457 | 14406 ft | 312 kts | 332° |
| 2026-05-01 11:09 | 47.97961 | 12.63630 | 14016 ft | 322 kts | 331° |
| 2026-05-01 11:10 | 48.01780 | 12.59915 | 13492 ft | 331 kts | 331° |
| 2026-05-01 11:10 | 48.03686 | 12.58060 | 13424 ft | 323 kts | 330° |
| 2026-05-01 11:10 | 48.05439 | 12.55997 | 13409 ft | 324 kts | 320° |
| 2026-05-01 11:10 | 48.06907 | 12.53429 | 13413 ft | 335 kts | 309° |
| 2026-05-01 11:11 | 48.08202 | 12.50432 | 13416 ft | 342 kts | 304° |
| 2026-05-01 11:11 | 48.09387 | 12.47331 | 13416 ft | 343 kts | 303° |
| 2026-05-01 11:11 | 48.10578 | 12.44252 | 13416 ft | 342 kts | 304° |
| 2026-05-01 11:11 | 48.11792 | 12.41175 | 13415 ft | 342 kts | 304° |
| 2026-05-01 11:12 | 48.13003 | 12.38127 | 13415 ft | 342 kts | 304° |
| 2026-05-01 11:12 | 48.13951 | 12.35898 | 13412 ft | 339 kts | 310° |
| 2026-05-01 11:12 | 48.15621 | 12.33488 | 13409 ft | 332 kts | 330° |
| 2026-05-01 11:12 | 48.17662 | 12.31969 | 13416 ft | 327 kts | 342° |
| 2026-05-01 11:13 | 48.19769 | 12.30660 | 13416 ft | 328 kts | 339° |
| 2026-05-01 11:13 | 48.21843 | 12.29219 | 13414 ft | 328 kts | 338° |
| 2026-05-01 11:13 | 48.23902 | 12.27736 | 13413 ft | 329 kts | 338° |
| 2026-05-01 11:13 | 48.25968 | 12.26244 | 13414 ft | 329 kts | 338° |
| 2026-05-01 11:14 | 48.27904 | 12.24360 | 13400 ft | 337 kts | 319° |
| 2026-05-01 11:14 | 48.29215 | 12.21254 | 13400 ft | 347 kts | 292° |
| 2026-05-01 11:14 | 48.29502 | 12.17812 | 13404 ft | 351 kts | 268° |
| 2026-05-01 11:14 | 48.29043 | 12.14152 | 13416 ft | 353 kts | 257° |
| 2026-05-01 11:15 | 48.28482 | 12.10624 | 13415 ft | 352 kts | 259° |
| 2026-05-01 11:15 | 48.28016 | 12.07060 | 13413 ft | 352 kts | 261° |
| 2026-05-01 11:15 | 48.27740 | 12.04613 | 13414 ft | 352 kts | 262° |
| 2026-05-01 11:15 | 48.27385 | 12.00952 | 13415 ft | 352 kts | 263° |
| 2026-05-01 11:16 | 48.27066 | 11.97332 | 13414 ft | 352 kts | 264° |
| 2026-05-01 11:16 | 48.26759 | 11.93661 | 13412 ft | 352 kts | 264° |
| 2026-05-01 11:16 | 48.26460 | 11.89999 | 13413 ft | 352 kts | 264° |
| 2026-05-01 11:16 | 48.26164 | 11.86349 | 13413 ft | 352 kts | 264° |
| 2026-05-01 11:17 | 48.25878 | 11.82713 | 13417 ft | 353 kts | 264° |
| 2026-05-01 11:17 | 48.25587 | 11.79053 | 13414 ft | 352 kts | 264° |
| 2026-05-01 11:17 | 48.25299 | 11.75414 | 13413 ft | 353 kts | 264° |
| 2026-05-01 11:17 | 48.25011 | 11.71642 | 13298 ft | 344 kts | 265° |
| 2026-05-01 11:18 | 48.24775 | 11.68208 | 12799 ft | 333 kts | 265° |
| 2026-05-01 11:18 | 48.24547 | 11.64664 | 12340 ft | 326 kts | 265° |
| 2026-05-01 11:18 | 48.24305 | 11.61278 | 11934 ft | 333 kts | 264° |
| 2026-05-01 11:18 | 48.24051 | 11.57932 | 11552 ft | 321 kts | 264° |
| 2026-05-01 11:19 | 48.23786 | 11.54591 | 11174 ft | 330 kts | 264° |
| 2026-05-01 11:19 | 48.23503 | 11.51070 | 10772 ft | 335 kts | 263° |
| 2026-05-01 11:19 | 48.23226 | 11.47685 | 10576 ft | 322 kts | 263° |
| 2026-05-01 11:19 | 48.22961 | 11.44455 | 10498 ft | 297 kts | 263° |
| 2026-05-01 11:20 | 48.22729 | 11.41450 | 10402 ft | 288 kts | 263° |
| 2026-05-01 11:20 | 48.22487 | 11.38422 | 10289 ft | 294 kts | 263° |
| 2026-05-01 11:20 | 48.22235 | 11.35354 | 9977 ft | 298 kts | 263° |
| 2026-05-01 11:20 | 48.21977 | 11.32232 | 9645 ft | 287 kts | 262° |
| 2026-05-01 11:21 | 48.21740 | 11.29392 | 9340 ft | 274 kts | 262° |
| 2026-05-01 11:21 | 48.21500 | 11.26533 | 9044 ft | 279 kts | 262° |
| 2026-05-01 11:21 | 48.21515 | 11.23573 | 8711 ft | 289 kts | 284° |
| 2026-05-01 11:21 | 48.22473 | 11.20957 | 8362 ft | 286 kts | 316° |
| 2026-05-01 11:22 | 48.24180 | 11.19469 | 8062 ft | 283 kts | 348° |
| 2026-05-01 11:22 | 48.26079 | 11.19532 | 7845 ft | 267 kts | 22° |
| 2026-05-01 11:22 | 48.27448 | 11.20889 | 7790 ft | 257 kts | 51° |
| 2026-05-01 11:22 | 48.28169 | 11.23164 | 7452 ft | 253 kts | 83° |
| 2026-05-01 11:23 | 48.27875 | 11.25745 | 7114 ft | 252 kts | 116° |
| 2026-05-01 11:23 | 48.26863 | 11.27910 | 6852 ft | 249 kts | 123° |
| 2026-05-01 11:23 | 48.26166 | 11.30203 | 6665 ft | 241 kts | 100° |
| 2026-05-01 11:23 | 48.26232 | 11.32675 | 6428 ft | 239 kts | 78° |
| 2026-05-01 11:24 | 48.26829 | 11.35041 | 6129 ft | 240 kts | 65° |
| 2026-05-01 11:24 | 48.27653 | 11.37210 | 5821 ft | 240 kts | 61° |
| 2026-05-01 11:24 | 48.29341 | 11.41408 | 5579 ft | 223 kts | 62° |
| 2026-05-01 11:25 | 48.30108 | 11.43379 | 5520 ft | 213 kts | 62° |
| 2026-05-01 11:25 | 48.31529 | 11.47060 | 5406 ft | 202 kts | 64° |
| 2026-05-01 11:25 | 48.32002 | 11.49037 | 5303 ft | 202 kts | 79° |
| 2026-05-01 11:26 | 48.32229 | 11.51119 | 5043 ft | 203 kts | 84° |
| 2026-05-01 11:26 | 48.32497 | 11.54679 | 4583 ft | 206 kts | 84° |
| 2026-05-01 11:26 | 48.32658 | 11.56816 | 4310 ft | 206 kts | 84° |
| 2026-05-01 11:27 | 48.32821 | 11.58935 | 4035 ft | 204 kts | 84° |
| 2026-05-01 11:27 | 48.33033 | 11.61686 | 3685 ft | 194 kts | 83° |
| 2026-05-01 11:27 | 48.33135 | 11.63012 | 3544 ft | 185 kts | 83° |
| 2026-05-01 11:27 | 48.33274 | 11.64813 | 3302 ft | 167 kts | 83° |
| 2026-05-01 11:28 | 48.33404 | 11.66500 | 3041 ft | 154 kts | 83° |
| 2026-05-01 11:28 | 48.33519 | 11.67999 | 2871 ft | 139 kts | 83° |
| 2026-05-01 11:28 | 48.33628 | 11.69401 | 2672 ft | 131 kts | 83° |
| 2026-05-01 11:29 | 48.33835 | 11.72100 | 2180 ft | 134 kts | 84° |
| 2026-05-01 11:29 | 48.33942 | 11.73486 | 1743 ft | 133 kts | 83° |
| 2026-05-01 11:29 | 48.34138 | 11.75954 | 1496 ft | 104 kts | 83° |
| 2026-05-01 11:30 | 48.34185 | 11.76582 | 1495 ft | 33 kts | 84° |
| 2026-05-01 11:30 | 48.34213 | 11.76950 | 1495 ft | 40 kts | 82° |
| 2026-05-01 11:30 | 48.34273 | 11.77379 | 1495 ft | 48 kts | 66° |
| 2026-05-01 11:30 | 48.34393 | 11.77703 | 1495 ft | 0 kts | 50° |
| 2026-05-01 11:31 | 48.34436 | 11.77779 | 1495 ft | 29 kts | 51° |
| 2026-05-01 11:31 | 48.34510 | 11.77904 | 1495 ft | 6 kts | 40° |
| 2026-05-01 11:31 | 48.34600 | 11.77911 | 1495 ft | 24 kts | 0° |
| 2026-05-01 11:32 | 48.34727 | 11.77893 | 1496 ft | 16 kts | 352° |
| 2026-05-01 11:32 | 48.34779 | 11.77882 | 1496 ft | 10 kts | 352° |
| 2026-05-01 11:32 | 48.34786 | 11.77881 | 1496 ft | 0 kts | 352° |
| 2026-05-01 11:34 | 48.34858 | 11.77866 | 1495 ft | 18 kts | 352° |
| 2026-05-01 11:34 | 48.34985 | 11.77843 | 1495 ft | 17 kts | 353° |
| 2026-05-01 11:35 | 48.35103 | 11.77825 | 1495 ft | 17 kts | 2° |
| 2026-05-01 11:35 | 48.35183 | 11.77922 | 1495 ft | 16 kts | 70° |
| 2026-05-01 11:35 | 48.35197 | 11.78082 | 1495 ft | 15 kts | 81° |
| 2026-05-01 11:35 | 48.35259 | 11.78184 | 1495 ft | 14 kts | 51° |
| 2026-05-01 11:36 | 48.35275 | 11.78288 | 1495 ft | 10 kts | 84° |
| 2026-05-01 11:36 | 48.35276 | 11.78311 | 1495 ft | 0 kts | 84° |